Time;durP1;ratioP1;P1;durP2;ratioP2;P2;SDS_P1;SDS_P2;PMS_P1;PMS_P2;Temp;Humidity;BMP_temperature;BMP_pressure;BME280_temperature;BME280_humidity;BME280_pressure;Samples;Min_cycle;Max_cycle;Signal;HPM_P1;HPM_P2
2022/04/04 00:01:51;;;;;;;15.03;12.17;;;;;;;;;;5068720;28;20206;-78
2022/04/04 00:04:19;;;;;;;14.20;11.67;;;;;;;;;;5062871;28;20244;-76
2022/04/04 00:06:47;;;;;;;14.03;11.37;;;;;;;;;;5063282;28;20229;-77
2022/04/04 00:09:14;;;;;;;13.30;11.47;;;;;;;;;;5063126;28;20220;-78
2022/04/04 00:11:41;;;;;;;13.63;11.63;;;;;;;;;;5065737;28;20232;-79
2022/04/04 00:14:08;;;;;;;14.33;12.43;;;;;;;;;;5065740;28;20230;-78
2022/04/04 00:16:36;;;;;;;14.10;11.23;;;;;;;;;;5060158;28;20297;-79
2022/04/04 00:19:05;;;;;;;14.23;11.87;;;;;;;;;;5059851;28;20224;-79
2022/04/04 00:21:32;;;;;;;16.20;11.50;;;;;;;;;;5056310;28;20221;-79
2022/04/04 00:24:00;;;;;;;12.20;10.90;;;;;;;;;;5055580;28;20241;-78
2022/04/04 00:26:27;;;;;;;14.60;11.67;;;;;;;;;;5055132;28;20266;-79
2022/04/04 00:28:54;;;;;;;14.27;11.80;;;;;;;;;;5054716;28;20201;-79
2022/04/04 00:31:21;;;;;;;15.17;12.20;;;;;;;;;;5054776;28;20203;-79
2022/04/04 00:33:49;;;;;;;13.23;11.60;;;;;;;;;;5055001;28;20340;-79
2022/04/04 00:36:17;;;;;;;15.53;11.17;;;;;;;;;;5054322;28;20267;-79
2022/04/04 00:38:44;;;;;;;12.70;10.83;;;;;;;;;;5054747;28;20232;-79
2022/04/04 00:41:13;;;;;;;12.87;11.50;;;;;;;;;;5054566;28;20308;-79
2022/04/04 00:43:41;;;;;;;12.97;11.63;;;;;;;;;;5054116;28;20289;-79
2022/04/04 00:46:08;;;;;;;12.53;11.23;;;;;;;;;;5053883;28;20193;-79
2022/04/04 00:48:36;;;;;;;12.00;10.60;;;;;;;;;;5054566;28;20201;-79
2022/04/04 00:51:03;;;;;;;14.23;11.70;;;;;;;;;;5053963;28;20255;-79
2022/04/04 00:53:32;;;;;;;13.70;10.90;;;;;;;;;;5054266;28;20228;-79
2022/04/04 00:56:00;;;;;;;12.60;11.00;;;;;;;;;;5054196;28;20308;-78
2022/04/04 00:58:29;;;;;;;13.50;10.90;;;;;;;;;;5054322;28;20197;-79
2022/04/04 01:00:56;;;;;;;14.00;11.77;;;;;;;;;;5054274;28;20248;-79
2022/04/04 01:03:24;;;;;;;13.93;11.33;;;;;;;;;;5053771;28;20221;-79
2022/04/04 01:05:51;;;;;;;14.03;11.23;;;;;;;;;;5053903;28;20201;-79
2022/04/04 01:08:18;;;;;;;13.23;10.47;;;;;;;;;;5054592;28;20270;-79
2022/04/04 01:10:47;;;;;;;12.63;11.13;;;;;;;;;;5053279;28;20198;-79
2022/04/04 01:13:14;;;;;;;13.70;11.67;;;;;;;;;;5053371;28;20252;-79
2022/04/04 01:15:41;;;;;;;12.23;10.93;;;;;;;;;;5053121;28;20208;-79
2022/04/04 01:18:09;;;;;;;12.73;11.30;;;;;;;;;;5053935;28;20205;-79
2022/04/04 01:20:37;;;;;;;14.23;11.97;;;;;;;;;;5054084;28;20224;-79
2022/04/04 01:23:04;;;;;;;13.97;11.80;;;;;;;;;;5052808;28;20220;-79
2022/04/04 01:25:35;;;;;;;13.30;11.90;;;;;;;;;;5053767;28;20201;-79
2022/04/04 01:28:02;;;;;;;13.43;11.87;;;;;;;;;;5053481;28;20197;-79
2022/04/04 01:30:31;;;;;;;13.50;12.07;;;;;;;;;;5053952;28;20211;-79
2022/04/04 01:32:58;;;;;;;13.23;11.40;;;;;;;;;;5053638;28;20239;-79
2022/04/04 01:35:25;;;;;;;12.73;10.93;;;;;;;;;;5053272;28;20292;-79
2022/04/04 01:37:53;;;;;;;12.53;11.23;;;;;;;;;;5053791;28;20229;-79
2022/04/04 01:40:20;;;;;;;13.63;11.50;;;;;;;;;;5053708;28;20309;-79
2022/04/04 01:42:50;;;;;;;14.47;11.43;;;;;;;;;;5053109;28;20201;-79
2022/04/04 01:45:17;;;;;;;12.90;10.73;;;;;;;;;;5053741;28;20275;-79
2022/04/04 01:47:45;;;;;;;12.87;10.77;;;;;;;;;;5052940;28;20293;-77
2022/04/04 01:50:13;;;;;;;11.83;10.60;;;;;;;;;;5053157;28;20197;-77
2022/04/04 01:52:40;;;;;;;12.20;10.43;;;;;;;;;;5052844;28;20209;-77
2022/04/04 01:55:08;;;;;;;12.60;10.27;;;;;;;;;;5053037;28;20225;-79
2022/04/04 01:57:35;;;;;;;12.27;10.53;;;;;;;;;;5053958;28;20205;-79
2022/04/04 02:00:05;;;;;;;11.77;10.37;;;;;;;;;;5053552;28;20224;-79
2022/04/04 02:02:32;;;;;;;12.53;11.23;;;;;;;;;;5050491;28;20197;-79
2022/04/04 02:04:59;;;;;;;12.73;10.37;;;;;;;;;;5055610;28;20278;-78
2022/04/04 02:07:26;;;;;;;14.47;11.23;;;;;;;;;;5053762;28;20263;-79
2022/04/04 02:09:58;;;;;;;13.90;10.80;;;;;;;;;;5058780;28;20201;-78
2022/04/04 02:12:25;;;;;;;12.27;10.77;;;;;;;;;;5057793;28;20209;-79
2022/04/04 02:14:53;;;;;;;14.43;11.57;;;;;;;;;;5052870;28;20227;-79
2022/04/04 02:17:22;;;;;;;14.23;12.33;;;;;;;;;;5052621;28;20205;-79
2022/04/04 02:19:49;;;;;;;14.57;11.97;;;;;;;;;;5052777;28;20201;-78
2022/04/04 02:22:16;;;;;;;16.30;12.03;;;;;;;;;;5052575;28;20240;-79
2022/04/04 02:24:44;;;;;;;12.90;10.93;;;;;;;;;;5052795;28;20228;-79
2022/04/04 02:27:11;;;;;;;13.50;11.57;;;;;;;;;;5052203;28;20197;-78
2022/04/04 02:29:38;;;;;;;12.23;10.87;;;;;;;;;;5052981;28;20237;-79
2022/04/04 02:32:06;;;;;;;15.83;11.43;;;;;;;;;;5048681;28;20288;-79
2022/04/04 02:34:34;;;;;;;14.30;11.37;;;;;;;;;;5051606;28;20300;-79
2022/04/04 02:37:01;;;;;;;14.10;11.80;;;;;;;;;;5054978;28;20202;-79
2022/04/04 02:39:29;;;;;;;14.23;12.03;;;;;;;;;;5056900;28;20272;-79
2022/04/04 02:41:56;;;;;;;13.10;11.60;;;;;;;;;;5056788;28;20229;-78
2022/04/04 02:44:23;;;;;;;13.20;10.97;;;;;;;;;;5057106;28;20251;-79
2022/04/04 02:46:50;;;;;;;11.67;10.47;;;;;;;;;;5056045;28;20667;-78
2022/04/04 02:49:18;;;;;;;13.47;10.80;;;;;;;;;;5056514;28;20288;-79
2022/04/04 02:51:46;;;;;;;11.77;10.50;;;;;;;;;;5056788;28;20237;-79
2022/04/04 02:54:13;;;;;;;13.13;11.40;;;;;;;;;;5052201;28;20236;-78
2022/04/04 02:56:41;;;;;;;12.80;10.80;;;;;;;;;;5056635;28;20291;-79
2022/04/04 02:59:09;;;;;;;15.27;11.83;;;;;;;;;;5056828;28;20220;-78
2022/04/04 03:01:36;;;;;;;12.20;10.90;;;;;;;;;;5055974;28;20213;-79
2022/04/04 03:04:04;;;;;;;14.53;11.10;;;;;;;;;;5056959;28;20213;-79
2022/04/04 03:06:31;;;;;;;13.23;11.83;;;;;;;;;;5056454;28;20236;-79
2022/04/04 03:09:00;;;;;;;14.70;10.73;;;;;;;;;;5056387;28;20711;-78
2022/04/04 03:11:27;;;;;;;13.63;11.43;;;;;;;;;;5056510;28;20236;-79
2022/04/04 03:13:54;;;;;;;13.70;11.67;;;;;;;;;;5056206;28;20283;-78
2022/04/04 03:16:21;;;;;;;12.57;10.73;;;;;;;;;;5055277;28;20204;-78
2022/04/04 03:18:49;;;;;;;11.93;10.73;;;;;;;;;;5055947;28;20208;-78
2022/04/04 03:21:16;;;;;;;14.00;11.27;;;;;;;;;;5055956;28;20217;-78
2022/04/04 03:23:44;;;;;;;12.87;10.70;;;;;;;;;;5055602;28;20247;-78
2022/04/04 03:26:13;;;;;;;13.00;11.63;;;;;;;;;;5055205;28;20288;-78
2022/04/04 03:28:40;;;;;;;13.07;10.73;;;;;;;;;;5055412;28;20208;-78
2022/04/04 03:31:07;;;;;;;14.10;11.90;;;;;;;;;;5055686;28;20207;-78
2022/04/04 03:36:11;;;;;;;14.40;11.63;;;;;;;;;;5027967;28;20212;-78
2022/04/04 03:38:38;;;;;;;12.03;10.80;;;;;;;;;;5031946;28;20198;-79
2022/04/04 03:41:06;;;;;;;12.77;11.23;;;;;;;;;;5038009;28;20222;-79
2022/04/04 03:43:34;;;;;;;13.30;11.40;;;;;;;;;;5032903;28;20234;-79
2022/04/04 03:46:02;;;;;;;14.80;11.60;;;;;;;;;;5026367;28;20283;-80
2022/04/04 03:48:30;;;;;;;15.30;12.10;;;;;;;;;;5032310;28;20224;-78
2022/04/04 03:50:57;;;;;;;13.50;11.37;;;;;;;;;;5036764;28;20237;-79
2022/04/04 03:53:25;;;;;;;13.20;10.83;;;;;;;;;;5031950;28;20263;-79
2022/04/04 03:55:53;;;;;;;13.47;11.77;;;;;;;;;;5032730;28;20221;-78
2022/04/04 03:58:20;;;;;;;15.00;11.73;;;;;;;;;;5032896;28;20221;-77
2022/04/04 04:00:49;;;;;;;14.50;11.30;;;;;;;;;;5032391;28;20221;-79
2022/04/04 04:03:16;;;;;;;13.17;11.00;;;;;;;;;;5032596;28;20212;-78
2022/04/04 04:05:43;;;;;;;12.87;11.13;;;;;;;;;;5033089;28;20312;-80
2022/04/04 04:08:10;;;;;;;14.47;12.37;;;;;;;;;;5032730;28;20300;-76
2022/04/04 04:10:38;;;;;;;23.20;15.27;;;;;;;;;;5033008;28;20205;-78
2022/04/04 04:13:05;;;;;;;16.80;12.10;;;;;;;;;;5032674;28;20210;-79
2022/04/04 04:15:33;;;;;;;15.00;11.63;;;;;;;;;;5032792;28;20238;-79
2022/04/04 04:18:01;;;;;;;12.80;11.47;;;;;;;;;;5032938;28;20292;-79
2022/04/04 04:20:32;;;;;;;13.40;11.20;;;;;;;;;;5033291;28;20201;-77
2022/04/04 04:23:00;;;;;;;13.27;10.60;;;;;;;;;;5032855;28;20222;-79
2022/04/04 04:25:28;;;;;;;13.00;11.00;;;;;;;;;;5032779;28;20316;-78
2022/04/04 04:27:57;;;;;;;13.30;11.30;;;;;;;;;;5031541;28;20205;-78
2022/04/04 04:30:24;;;;;;;13.03;10.43;;;;;;;;;;5030460;28;20217;-79
2022/04/04 04:32:52;;;;;;;14.17;10.80;;;;;;;;;;5031049;28;20237;-79
2022/04/04 04:35:22;;;;;;;13.53;10.70;;;;;;;;;;5032979;28;20255;-78
2022/04/04 04:37:50;;;;;;;12.93;11.10;;;;;;;;;;5031847;28;20210;-79
2022/04/04 04:40:17;;;;;;;13.17;10.70;;;;;;;;;;5033115;28;20352;-79
2022/04/04 04:42:45;;;;;;;13.43;11.27;;;;;;;;;;5034724;28;20769;-83
2022/04/04 04:45:13;;;;;;;15.87;11.83;;;;;;;;;;5034467;28;20221;-83
2022/04/04 04:47:40;;;;;;;16.47;13.10;;;;;;;;;;5036915;28;20221;-81
2022/04/04 04:50:09;;;;;;;15.27;12.67;;;;;;;;;;5032763;28;20206;-78
2022/04/04 04:52:38;;;;;;;15.73;13.30;;;;;;;;;;5032348;28;20205;-78
2022/04/04 04:55:06;;;;;;;16.80;12.27;;;;;;;;;;5031275;28;20715;-77
2022/04/04 04:57:33;;;;;;;14.40;11.97;;;;;;;;;;5031988;28;20213;-76
2022/04/04 05:00:03;;;;;;;16.03;12.80;;;;;;;;;;5032720;28;20202;-78
2022/04/04 05:02:30;;;;;;;13.67;12.03;;;;;;;;;;5032455;28;20268;-79
2022/04/04 05:04:58;;;;;;;14.87;12.40;;;;;;;;;;5031992;28;20230;-79
2022/04/04 05:07:25;;;;;;;15.63;12.60;;;;;;;;;;5032449;28;20237;-79
2022/04/04 05:09:53;;;;;;;16.43;12.93;;;;;;;;;;5032501;28;20256;-78
2022/04/04 05:12:21;;;;;;;17.17;13.80;;;;;;;;;;5032202;28;20202;-80
2022/04/04 05:14:48;;;;;;;19.70;14.33;;;;;;;;;;5037541;28;20233;-80
2022/04/04 05:17:15;;;;;;;18.37;14.17;;;;;;;;;;5039808;28;20201;-77
2022/04/04 05:19:45;;;;;;;19.77;14.30;;;;;;;;;;5034558;28;20205;-82
2022/04/04 05:22:14;;;;;;;17.33;13.87;;;;;;;;;;5033040;28;20245;-79
2022/04/04 05:24:41;;;;;;;19.50;13.50;;;;;;;;;;5037956;28;20218;-80
2022/04/04 05:27:10;;;;;;;18.43;12.97;;;;;;;;;;5028038;28;20249;-77
2022/04/04 05:29:38;;;;;;;15.27;12.47;;;;;;;;;;5035595;28;20265;-79
2022/04/04 05:32:05;;;;;;;16.93;13.50;;;;;;;;;;5031968;28;20202;-81
2022/04/04 05:34:33;;;;;;;14.70;12.40;;;;;;;;;;5034942;28;20260;-78
2022/04/04 05:37:01;;;;;;;14.10;11.87;;;;;;;;;;5034637;28;20202;-81
2022/04/04 05:39:28;;;;;;;16.43;12.47;;;;;;;;;;5036084;28;20214;-81
2022/04/04 05:41:55;;;;;;;13.90;11.53;;;;;;;;;;5036066;28;20218;-81
2022/04/04 05:44:24;;;;;;;14.20;11.40;;;;;;;;;;5034771;28;20237;-78
2022/04/04 05:46:52;;;;;;;13.47;10.77;;;;;;;;;;5035096;28;20297;-78
2022/04/04 05:49:19;;;;;;;11.63;10.37;;;;;;;;;;5036167;28;20205;-81
2022/04/04 05:51:46;;;;;;;11.03;9.93;;;;;;;;;;5036160;28;20248;-80
2022/04/04 05:54:14;;;;;;;12.03;10.33;;;;;;;;;;5031089;28;20233;-80
2022/04/04 05:56:43;;;;;;;11.70;10.37;;;;;;;;;;5031892;28;20323;-77
2022/04/04 05:59:11;;;;;;;11.03;9.73;;;;;;;;;;5029508;28;20201;-79
2022/04/04 06:01:39;;;;;;;11.43;10.27;;;;;;;;;;5032006;28;20221;-83
2022/04/04 06:04:06;;;;;;;11.63;10.27;;;;;;;;;;5033174;28;20222;-80
2022/04/04 06:06:34;;;;;;;11.20;10.03;;;;;;;;;;5034507;28;20210;-80
2022/04/04 06:09:01;;;;;;;11.50;10.30;;;;;;;;;;5037613;28;20209;-79
2022/04/04 06:11:29;;;;;;;12.20;10.47;;;;;;;;;;5035873;28;20214;-81
2022/04/04 06:13:59;;;;;;;14.67;11.70;;;;;;;;;;5035195;28;20197;-80
2022/04/04 06:16:28;;;;;;;10.80;9.67;;;;;;;;;;5032126;28;20201;-80
2022/04/04 06:18:57;;;;;;;10.23;9.23;;;;;;;;;;5039357;28;20225;-80
2022/04/04 06:21:24;;;;;;;10.13;9.10;;;;;;;;;;5041510;28;20628;-78
2022/04/04 06:23:52;;;;;;;9.47;8.47;;;;;;;;;;5038332;28;20213;-80
2022/04/04 06:26:19;;;;;;;9.83;8.83;;;;;;;;;;5038956;28;20212;-81
2022/04/04 06:28:47;;;;;;;10.37;9.23;;;;;;;;;;5036078;28;20201;-80
2022/04/04 06:31:15;;;;;;;10.73;8.57;;;;;;;;;;5037186;28;20236;-79
2022/04/04 06:33:42;;;;;;;9.53;8.53;;;;;;;;;;5036669;28;20209;-79
2022/04/04 06:36:11;;;;;;;10.57;8.93;;;;;;;;;;5036489;28;20272;-80
2022/04/04 06:38:39;;;;;;;9.07;8.17;;;;;;;;;;5037643;28;20206;-80
2022/04/04 06:41:06;;;;;;;9.30;8.40;;;;;;;;;;5037078;28;20265;-80
2022/04/04 06:43:34;;;;;;;9.20;8.07;;;;;;;;;;5036292;28;20230;-79
2022/04/04 06:46:01;;;;;;;9.33;8.37;;;;;;;;;;5036834;28;20225;-79
2022/04/04 06:48:28;;;;;;;8.40;7.60;;;;;;;;;;5036516;28;20213;-80
2022/04/04 06:50:56;;;;;;;9.50;7.73;;;;;;;;;;5038260;28;20209;-80
2022/04/04 06:53:24;;;;;;;8.70;7.97;;;;;;;;;;5041700;28;20220;-81
2022/04/04 06:55:52;;;;;;;8.53;7.73;;;;;;;;;;5040509;28;20230;-80
2022/04/04 06:58:21;;;;;;;8.40;7.60;;;;;;;;;;5040559;28;20214;-79
2022/04/04 07:00:48;;;;;;;10.33;8.47;;;;;;;;;;5037973;28;20206;-79
2022/04/04 07:03:15;;;;;;;8.13;7.33;;;;;;;;;;5037059;28;20229;-79
2022/04/04 07:05:42;;;;;;;8.33;7.53;;;;;;;;;;5031721;28;20286;-80
2022/04/04 07:08:10;;;;;;;9.33;8.50;;;;;;;;;;5033462;28;20206;-80
2022/04/04 07:10:39;;;;;;;10.83;9.73;;;;;;;;;;5034919;28;20715;-79
2022/04/04 07:13:07;;;;;;;9.10;8.30;;;;;;;;;;5034754;28;20209;-80
2022/04/04 07:15:34;;;;;;;9.50;8.20;;;;;;;;;;5034649;28;20229;-79
2022/04/04 07:18:02;;;;;;;9.50;8.13;;;;;;;;;;5037373;28;20206;-78
2022/04/04 07:20:29;;;;;;;10.70;7.67;;;;;;;;;;5038090;28;20260;-79
2022/04/04 07:22:56;;;;;;;7.67;6.97;;;;;;;;;;5035781;28;20309;-80
2022/04/04 07:25:24;;;;;;;7.23;6.53;;;;;;;;;;5036037;28;20248;-80
2022/04/04 07:27:53;;;;;;;7.93;7.10;;;;;;;;;;5038060;28;20213;-80
2022/04/04 07:30:23;;;;;;;8.83;6.67;;;;;;;;;;5043216;28;20217;-80
2022/04/04 07:32:51;;;;;;;7.67;6.73;;;;;;;;;;5042086;28;20216;-80
2022/04/04 07:35:19;;;;;;;7.00;6.40;;;;;;;;;;5044504;28;20297;-80
2022/04/04 07:37:47;;;;;;;8.77;6.27;;;;;;;;;;5044156;28;20220;-80
2022/04/04 07:40:18;;;;;;;9.67;6.50;;;;;;;;;;5044197;28;20205;-79
2022/04/04 07:42:46;;;;;;;7.00;6.30;;;;;;;;;;5045025;28;20226;-80
2022/04/04 07:45:16;;;;;;;7.10;6.33;;;;;;;;;;5044758;28;20246;-80
2022/04/04 07:47:43;;;;;;;7.43;6.13;;;;;;;;;;5043693;28;20202;-78
2022/04/04 07:50:12;;;;;;;8.30;6.20;;;;;;;;;;5041830;28;20198;-80
2022/04/04 07:52:40;;;;;;;11.47;6.67;;;;;;;;;;5035442;28;20194;-80
2022/04/04 07:55:08;;;;;;;7.47;6.77;;;;;;;;;;5041282;28;20222;-80
2022/04/04 07:57:35;;;;;;;7.23;6.10;;;;;;;;;;5040771;28;20205;-81
2022/04/04 08:00:04;;;;;;;7.63;6.33;;;;;;;;;;5040835;28;20228;-80
2022/04/04 08:02:32;;;;;;;7.30;6.60;;;;;;;;;;5041051;28;20224;-81
2022/04/04 08:04:59;;;;;;;7.30;6.57;;;;;;;;;;5041308;28;20301;-80
2022/04/04 08:07:27;;;;;;;7.37;6.67;;;;;;;;;;5037245;28;20206;-80
2022/04/04 08:09:54;;;;;;;10.53;7.30;;;;;;;;;;5036673;28;20213;-80
2022/04/04 08:12:21;;;;;;;7.70;6.90;;;;;;;;;;5039596;28;20199;-80
2022/04/04 08:14:49;;;;;;;8.27;7.20;;;;;;;;;;5035806;28;20222;-80
2022/04/04 08:17:17;;;;;;;7.07;6.10;;;;;;;;;;5033150;28;20217;-79
2022/04/04 08:19:46;;;;;;;7.97;7.17;;;;;;;;;;5036840;28;20202;-80
2022/04/04 08:22:13;;;;;;;7.97;6.97;;;;;;;;;;5037150;28;20238;-79
2022/04/04 08:24:41;;;;;;;8.00;7.20;;;;;;;;;;5033050;28;20238;-79
2022/04/04 08:27:10;;;;;;;8.47;6.87;;;;;;;;;;5035524;28;20228;-78
2022/04/04 08:29:37;;;;;;;8.33;7.40;;;;;;;;;;5042439;28;20198;-80
2022/04/04 08:32:05;;;;;;;9.27;7.00;;;;;;;;;;5037366;28;20209;-80
2022/04/04 08:34:32;;;;;;;7.37;6.67;;;;;;;;;;5034877;28;20312;-80
2022/04/04 08:37:01;;;;;;;13.73;7.80;;;;;;;;;;5034954;28;20228;-79
2022/04/04 08:39:28;;;;;;;8.77;7.30;;;;;;;;;;5035936;28;20210;-80
2022/04/04 08:41:56;;;;;;;8.83;7.77;;;;;;;;;;5035275;28;20216;-80
2022/04/04 08:44:23;;;;;;;11.10;7.47;;;;;;;;;;5034843;28;20229;-80
2022/04/04 08:46:52;;;;;;;8.27;7.57;;;;;;;;;;5034879;28;20198;-79
2022/04/04 08:49:19;;;;;;;8.47;7.47;;;;;;;;;;5035578;28;20267;-80
2022/04/04 08:51:49;;;;;;;8.10;7.30;;;;;;;;;;5032559;28;20205;-80
2022/04/04 08:54:18;;;;;;;8.53;7.83;;;;;;;;;;5034956;28;20226;-79
2022/04/04 08:56:45;;;;;;;8.87;8.03;;;;;;;;;;5035136;28;20741;-80
2022/04/04 08:59:13;;;;;;;7.40;6.80;;;;;;;;;;5033726;28;20226;-79
2022/04/04 09:01:40;;;;;;;8.03;7.37;;;;;;;;;;5034315;28;20276;-79
2022/04/04 09:04:15;;;;;;;8.27;6.67;;;;;;;;;;5034658;28;20230;-79
2022/04/04 09:06:50;;;;;;;7.43;6.20;;;;;;;;;;5040152;28;20205;-80
2022/04/04 09:09:27;;;;;;;6.37;5.87;;;;;;;;;;5038965;28;20213;-80
2022/04/04 09:12:09;;;;;;;6.93;6.27;;;;;;;;;;5035998;28;20228;-80
2022/04/04 09:14:38;;;;;;;6.80;6.20;;;;;;;;;;5033674;28;20230;-80
2022/04/04 09:17:08;;;;;;;7.40;6.67;;;;;;;;;;5034313;28;20210;-78
2022/04/04 09:19:36;;;;;;;7.23;6.53;;;;;;;;;;5033764;28;20279;-80
2022/04/04 09:22:07;;;;;;;6.13;5.50;;;;;;;;;;5029634;28;20206;-84
2022/04/04 09:24:49;;;;;;;5.67;5.17;;;;;;;;;;5032956;28;20297;-84
2022/04/04 09:27:21;;;;;;;5.60;5.03;;;;;;;;;;5033413;28;20189;-80
2022/04/04 09:29:48;;;;;;;6.07;5.40;;;;;;;;;;5029523;28;20210;-81
2022/04/04 09:32:16;;;;;;;6.80;6.20;;;;;;;;;;5035873;28;20210;-79
2022/04/04 09:34:53;;;;;;;7.10;6.23;;;;;;;;;;5056335;22;20248;-80
2022/04/04 09:37:22;;;;;;;7.63;6.30;;;;;;;;;;5083598;28;20279;-80
2022/04/04 09:39:51;;;;;;;6.70;6.13;;;;;;;;;;5082355;28;20243;-80
2022/04/04 09:42:21;;;;;;;6.50;5.90;;;;;;;;;;5083610;28;20200;-80
2022/04/04 09:44:58;;;;;;;8.03;6.30;;;;;;;;;;5081412;28;20220;-80
2022/04/04 09:47:26;;;;;;;7.20;6.53;;;;;;;;;;5082499;28;20204;-80
2022/04/04 09:49:53;;;;;;;9.60;6.37;;;;;;;;;;5081020;28;20224;-81
2022/04/04 09:52:20;;;;;;;6.60;5.80;;;;;;;;;;5086389;28;20249;-79
2022/04/04 09:54:52;;;;;;;7.43;6.63;;;;;;;;;;5078291;28;20228;-78
2022/04/04 09:57:22;;;;;;;6.60;6.10;;;;;;;;;;5071446;28;20287;-78
2022/04/04 09:59:53;;;;;;;7.20;6.57;;;;;;;;;;5071450;28;20742;-78
2022/04/04 10:02:20;;;;;;;6.90;6.23;;;;;;;;;;5080308;28;20203;-77
2022/04/04 10:04:49;;;;;;;7.47;6.77;;;;;;;;;;5070310;28;20216;-78
2022/04/04 10:07:17;;;;;;;7.33;6.70;;;;;;;;;;5072408;28;20207;-80
2022/04/04 10:09:45;;;;;;;8.17;6.07;;;;;;;;;;5071975;28;20274;-77
2022/04/04 10:12:14;;;;;;;5.67;5.27;;;;;;;;;;5071662;28;20210;-78
2022/04/04 10:14:46;;;;;;;6.87;5.70;;;;;;;;;;5076436;28;20517;-78
2022/04/04 10:17:13;;;;;;;7.57;6.73;;;;;;;;;;5071562;28;20212;-77
2022/04/04 10:19:42;;;;;;;6.40;5.77;;;;;;;;;;5070382;28;20234;-79
2022/04/04 10:22:09;;;;;;;6.50;5.90;;;;;;;;;;5077799;28;20212;-78
2022/04/04 10:24:38;;;;;;;7.30;6.60;;;;;;;;;;5072314;28;20709;-78
2022/04/04 10:27:08;;;;;;;7.47;6.00;;;;;;;;;;5078285;28;20200;-79
2022/04/04 10:29:39;;;;;;;7.13;6.53;;;;;;;;;;5082644;28;20204;-80
2022/04/04 10:32:22;;;;;;;6.60;5.90;;;;;;;;;;5080154;28;20197;-80
2022/04/04 10:34:51;;;;;;;6.40;5.80;;;;;;;;;;5061233;28;20228;-79
2022/04/04 10:37:20;;;;;;;6.93;5.80;;;;;;;;;;5063014;28;20208;-79
2022/04/04 10:39:48;;;;;;;6.67;5.97;;;;;;;;;;5065040;28;20243;-79
2022/04/04 10:42:27;;;;;;;6.37;5.87;;;;;;;;;;5060240;28;20205;-79
2022/04/04 10:44:59;;;;;;;6.10;5.60;;;;;;;;;;5066839;28;20220;-81
2022/04/04 10:47:29;;;;;;;5.37;4.97;;;;;;;;;;5077297;28;20291;-79
2022/04/04 10:50:01;;;;;;;5.63;5.13;;;;;;;;;;5076781;28;20262;-83
2022/04/04 10:52:46;;;;;;;5.83;5.40;;;;;;;;;;5076938;28;20205;-80
2022/04/04 10:55:43;;;;;;;6.00;5.40;;;;;;;;;;5072349;28;20286;-80
2022/04/04 10:58:14;;;;;;;5.57;5.07;;;;;;;;;;5081209;28;20232;-80
2022/04/04 11:00:56;;;;;;;5.53;5.03;;;;;;;;;;5081481;28;20281;-78
2022/04/04 11:03:34;;;;;;;9.37;5.50;;;;;;;;;;5080474;28;20263;-80
2022/04/04 11:08:59;;;;;;;5.17;4.67;;;;;;;;;;5056347;28;20212;-80
2022/04/04 11:11:41;;;;;;;6.30;5.70;;;;;;;;;;5077740;28;20258;-79
2022/04/04 11:14:09;;;;;;;5.30;4.80;;;;;;;;;;5080829;28;20201;-79
2022/04/04 11:16:54;;;;;;;5.93;5.20;;;;;;;;;;5081032;28;20220;-79
2022/04/04 11:19:45;;;;;;;5.83;5.20;;;;;;;;;;5080088;28;20200;-80
2022/04/04 11:22:17;;;;;;;5.90;5.40;;;;;;;;;;5085662;28;20205;-80
2022/04/04 11:24:44;;;;;;;5.93;5.33;;;;;;;;;;5083353;28;20224;-80
2022/04/04 11:27:13;;;;;;;5.73;5.23;;;;;;;;;;5084038;28;20235;-80
2022/04/04 11:29:40;;;;;;;5.90;5.40;;;;;;;;;;5083314;28;20224;-80
2022/04/04 11:32:09;;;;;;;7.03;5.43;;;;;;;;;;5086357;28;20287;-80
2022/04/04 11:34:44;;;;;;;5.97;5.37;;;;;;;;;;5082297;28;20292;-79
2022/04/04 11:37:17;;;;;;;5.50;5.10;;;;;;;;;;5084248;28;20245;-80
2022/04/04 11:39:45;;;;;;;5.17;4.77;;;;;;;;;;5083098;28;20260;-79
2022/04/04 11:42:12;;;;;;;6.53;5.63;;;;;;;;;;5084630;28;20196;-80
2022/04/04 11:44:46;;;;;;;5.90;5.30;;;;;;;;;;5083200;28;20224;-80
2022/04/04 11:47:14;;;;;;;7.93;6.83;;;;;;;;;;5078408;28;20261;-80
2022/04/04 11:49:43;;;;;;;5.90;5.17;;;;;;;;;;5080160;28;20201;-80
2022/04/04 11:52:15;;;;;;;5.63;5.13;;;;;;;;;;5075367;28;20200;-80
2022/04/04 11:54:42;;;;;;;6.20;5.60;;;;;;;;;;5085516;28;20220;-81
2022/04/04 11:57:15;;;;;;;4.87;4.47;;;;;;;;;;5081778;28;20201;-80
2022/04/04 11:59:43;;;;;;;5.97;5.27;;;;;;;;;;5085904;28;20215;-80
2022/04/04 12:02:13;;;;;;;5.57;5.07;;;;;;;;;;5089035;28;20205;-80
2022/04/04 12:04:42;;;;;;;7.73;5.17;;;;;;;;;;5095719;28;20228;-80
2022/04/04 12:07:12;;;;;;;6.00;5.50;;;;;;;;;;5092376;28;20219;-80
2022/04/04 12:09:42;;;;;;;5.93;5.43;;;;;;;;;;5084837;28;20257;-80
2022/04/04 12:12:10;;;;;;;6.43;4.87;;;;;;;;;;5083762;28;20197;-80
2022/04/04 12:14:38;;;;;;;4.80;4.50;;;;;;;;;;5083193;28;20223;-85
2022/04/04 12:17:06;;;;;;;4.97;4.57;;;;;;;;;;5082282;28;20205;-81
2022/04/04 12:19:33;;;;;;;5.87;5.27;;;;;;;;;;5082384;28;20192;-83
2022/04/04 12:24:54;;;;;;;9.17;5.67;;;;;;;;;;5076498;28;20197;-86
2022/04/04 12:24:58;;;;;;;5.50;5.00;;;;;;;;;;5082579;28;20232;-80
2022/04/04 12:27:25;;;;;;;5.70;5.20;;;;;;;;;;5082207;28;20208;-80
2022/04/04 12:29:59;;;;;;;6.97;5.37;;;;;;;;;;5082601;28;20200;-81
2022/04/04 12:32:26;;;;;;;9.87;5.37;;;;;;;;;;5082378;28;20204;-81
2022/04/04 12:35:02;;;;;;;5.70;5.30;;;;;;;;;;5094602;28;20290;-80
2022/04/04 12:37:39;;;;;;;6.20;4.93;;;;;;;;;;5076816;28;20215;-81
2022/04/04 12:40:29;;;;;;;8.67;5.50;;;;;;;;;;5082904;28;20222;-80
2022/04/04 12:43:07;;;;;;;8.13;6.00;;;;;;;;;;5082726;28;20209;-79
2022/04/04 12:45:36;;;;;;;6.10;5.60;;;;;;;;;;5071427;28;20239;-80
2022/04/04 12:48:08;;;;;;;5.43;5.00;;;;;;;;;;5074541;28;20264;-80
2022/04/04 12:50:42;;;;;;;7.47;6.00;;;;;;;;;;5073862;28;20228;-79
2022/04/04 12:56:06;;;;;;;7.63;5.47;;;;;;;;;;5057304;28;20290;-78
2022/04/04 12:58:34;;;;;;;6.77;5.50;;;;;;;;;;5072913;28;20273;-78
2022/04/04 13:01:17;;;;;;;6.70;6.10;;;;;;;;;;5068208;28;20193;-77
2022/04/04 13:03:51;;;;;;;5.93;5.43;;;;;;;;;;5069305;28;20246;-78
2022/04/04 13:06:19;;;;;;;6.63;6.03;;;;;;;;;;5077410;28;20231;-79
2022/04/04 13:09:06;;;;;;;10.87;6.50;;;;;;;;;;5089690;28;20226;-78
2022/04/04 13:11:48;;;;;;;6.40;5.80;;;;;;;;;;5069834;28;20204;-78
2022/04/04 13:14:16;;;;;;;5.93;5.43;;;;;;;;;;5069310;28;20227;-78
2022/04/04 13:16:47;;;;;;;7.20;6.40;;;;;;;;;;5070836;28;20204;-79
2022/04/04 13:19:15;;;;;;;5.80;5.30;;;;;;;;;;5071960;28;20208;-82
2022/04/04 13:21:53;;;;;;;5.97;5.47;;;;;;;;;;5074143;28;20208;-78
2022/04/04 13:24:20;;;;;;;6.17;5.67;;;;;;;;;;5072070;28;20310;-87
2022/04/04 13:27:10;;;;;;;8.23;5.10;;;;;;;;;;5069090;28;20216;-78
2022/04/04 13:29:37;;;;;;;5.90;5.30;;;;;;;;;;5071696;28;20207;-78
2022/04/04 13:32:12;;;;;;;6.37;5.77;;;;;;;;;;5073779;28;20257;-78
2022/04/04 13:34:46;;;;;;;6.53;5.77;;;;;;;;;;5072726;28;20208;-78
2022/04/04 13:37:36;;;;;;;9.23;5.87;;;;;;;;;;5079662;28;20219;-79
2022/04/04 13:40:15;;;;;;;5.83;5.17;;;;;;;;;;5075874;28;20204;-78
2022/04/04 13:42:44;;;;;;;12.27;6.17;;;;;;;;;;5070099;28;20192;-78
2022/04/04 13:45:15;;;;;;;6.97;6.37;;;;;;;;;;5073316;28;20228;-78
2022/04/04 13:47:43;;;;;;;6.50;5.90;;;;;;;;;;5077404;28;20254;-79
2022/04/04 13:53:09;;;;;;;7.77;5.93;;;;;;;;;;5062579;28;20212;-77
2022/04/04 13:55:44;;;;;;;7.73;6.00;;;;;;;;;;5069508;28;20220;-79
2022/04/04 13:58:16;;;;;;;6.30;5.80;;;;;;;;;;5063645;28;20277;-78
2022/04/04 14:00:43;;;;;;;6.67;6.07;;;;;;;;;;5070649;28;20242;-78
2022/04/04 14:03:13;;;;;;;7.43;6.10;;;;;;;;;;5071447;28;20197;-80
2022/04/04 14:05:58;;;;;;;;;;;;;;;;;;;;;
2022/04/04 14:08:31;;;;;;;7.17;5.90;;;;;;;;;;5077981;28;20207;-79
2022/04/04 14:11:07;;;;;;;6.80;6.10;;;;;;;;;;5075819;28;20200;-79
2022/04/04 14:13:48;;;;;;;6.90;6.30;;;;;;;;;;5067715;28;20216;-78
2022/04/04 14:16:28;;;;;;;7.07;6.47;;;;;;;;;;5071864;28;20232;-78
2022/04/04 14:18:57;;;;;;;6.43;5.83;;;;;;;;;;5075436;28;20204;-79
2022/04/04 14:21:39;;;;;;;6.87;6.20;;;;;;;;;;5073932;28;20200;-79
2022/04/04 14:24:07;;;;;;;6.37;5.87;;;;;;;;;;5071795;28;20251;-78
2022/04/04 14:26:36;;;;;;;10.53;6.13;;;;;;;;;;5073251;28;20297;-79
2022/04/04 14:29:05;;;;;;;9.00;6.07;;;;;;;;;;5078669;28;20208;-81
2022/04/04 14:31:41;;;;;;;6.47;5.87;;;;;;;;;;5083402;28;20269;-79
2022/04/04 14:34:08;;;;;;;7.50;6.83;;;;;;;;;;5074702;28;20196;-79
2022/04/04 14:36:51;;;;;;;7.13;6.43;;;;;;;;;;5070357;28;20228;-79
2022/04/04 14:39:24;;;;;;;6.97;6.37;;;;;;;;;;5077958;28;20211;-79
2022/04/04 14:41:52;;;;;;;7.73;6.20;;;;;;;;;;5081411;28;20302;-79
2022/04/04 14:44:31;;;;;;;6.40;5.87;;;;;;;;;;5077962;28;20224;-78
2022/04/04 14:47:00;;;;;;;8.37;6.20;;;;;;;;;;5077340;28;20200;-79
2022/04/04 14:49:35;;;;;;;8.30;7.50;;;;;;;;;;5074895;28;20197;-79
2022/04/04 14:54:49;;;;;;;8.03;7.23;;;;;;;;;;5076085;28;20232;-79
2022/04/04 14:57:19;;;;;;;8.60;7.40;;;;;;;;;;5074634;28;20211;-77
2022/04/04 14:59:51;;;;;;;7.00;6.50;;;;;;;;;;5071170;28;20208;-77
2022/04/04 15:02:18;;;;;;;8.27;6.93;;;;;;;;;;5074453;28;20211;-78